Latest Weather Observations for Ballina

IDN60801

Issued at 11:43 pm EDT Wednesday 1 February 2023 (issued every 10 minutes, with the page automatically refreshed every 10 minutes)

About weather observations | Map of weather stations | Latest weather observations for NSW | Other Formats
Station Details ID: 058198 Name: BALLINA AIRPORT AWS Lat: -28.84 Lon: 153.56 Height: 1.3 m
Data from the previous 72 hours. | See also: Recent months at Ballina
Date/Time
EDT
Temp
°C
App
Temp
°C
Dew
Point
°C
Rel
Hum
%
Delta-T
°C
Wind Press
QNH
hPa
Press
MSL
hPa
Rain since
9am
mm
Dir  Spd
km/h
Gust
km/h
Spd
kts
Gust
kts
01/11:40pm 22.0 25.1 21.0 94 0.7 N 6 7 3 4 1003.5 1003.5 0.2
01/11:30pm 22.0 25.1 21.0 94 0.7 N 6 7 3 4 1003.5 1003.5 0.2
01/11:25pm 22.0 25.7 20.8 93 0.8 N 2 7 1 4 1003.5 1003.5 0.2
01/11:00pm 22.7 27.1 21.3 92 0.9 CALM 0 0 0 0 1003.7 1003.7 0.2
01/10:30pm 23.2 26.5 21.8 92 0.9 N 7 9 4 5 1003.6 1003.6 0.2
01/10:00pm 23.1 26.9 21.7 92 0.9 NE 4 9 2 5 1003.3 1003.3 0.2
01/09:30pm 23.6 28.3 21.9 90 1.1 CALM 0 4 0 2 1003.1 1003.1 0.2
01/09:00pm 23.8 28.1 21.9 89 1.3 ENE 2 6 1 3 1002.8 1002.8 0.2
01/08:30pm 24.1 27.6 21.8 87 1.5 ENE 6 7 3 4 1002.3 1002.3 0.2
01/08:00pm 24.7 28.1 22.0 85 1.8 E 7 11 4 6 1002.0 1002.0 0.2
01/07:30pm 25.0 27.6 21.9 83 2.1 ENE 11 15 6 8 1001.3 1001.3 0.2
01/07:00pm 25.5 28.1 22.0 81 2.3 ENE 11 15 6 8 1001.0 1001.0 0.2
01/06:30pm 25.8 27.7 22.1 80 2.5 ESE 15 22 8 12 1000.7 1000.7 0.2
01/06:00pm 26.4 27.9 22.0 77 3.0 ESE 17 20 9 11 1000.3 1000.3 0.2
01/05:30pm 27.0 29.1 22.4 76 3.1 ESE 15 20 8 11 1000.1 1000.1 0.2
01/05:00pm 26.9 28.6 22.3 76 3.1 E 17 22 9 12 1000.3 1000.3 0.2
01/04:30pm 26.7 29.0 22.8 79 2.6 ESE 15 22 8 12 1000.5 1000.5 0.2
01/04:00pm 26.5 28.4 22.8 80 2.5 E 17 28 9 15 1000.7 1000.7 0.2
01/03:30pm 27.3 28.9 22.9 77 3.0 SE 19 24 10 13 1000.9 1000.9 0.2
01/03:00pm 27.7 29.2 23.1 76 3.1 SSE 20 28 11 15 1001.1 1001.1 0.2
01/02:30pm 27.7 28.2 22.0 71 3.8 SSE 22 26 12 14 1001.3 1001.3 0.2
01/02:00pm 27.4 28.3 21.9 72 3.7 SSE 20 28 11 15 1001.6 1001.6 0.2
01/01:30pm 27.2 28.2 22.8 77 3.0 SSE 22 28 12 15 1001.7 1001.7 0.2
01/01:00pm 26.5 26.6 21.9 76 3.1 SSE 24 30 13 16 1001.9 1001.9 0.2
01/12:30pm 26.8 27.9 23.1 80 2.5 SE 22 30 12 16 1002.0 1002.0 0.2
01/12:00pm 27.1 29.5 22.9 78 2.9 S 15 19 8 10 1002.0 1002.0 0.2
01/11:30am 26.8 28.7 22.0 75 3.2 SSW 15 20 8 11 1002.0 1002.0 0.2
01/11:05am 26.5 28.7 23.2 82 2.2 SSW 17 24 9 13 1002.0 1002.0 0.0
01/11:00am 26.3 28.6 22.8 81 2.4 SSW 15 24 8 13 1002.0 1002.0 0.0
01/10:55am 25.8 27.7 22.1 80 2.5 SSW 15 22 8 12 1002.0 1002.0 0.0
01/10:53am 25.9 27.7 22.6 82 2.2 SSW 17 22 9 12 1001.9 1001.9 0.0
01/10:32am 26.2 29.3 23.5 85 1.8 SE 13 19 7 10 1001.8 1001.8 0.0
01/10:30am 26.0 29.0 23.3 85 1.8 SE 13 19 7 10 1001.8 1001.8 0.0
01/10:00am 26.6 29.7 22.9 80 2.5 SW 11 17 6 9 1001.7 1001.7 0.0
01/09:52am 26.3 29.5 22.4 79 2.6 SW 9 13 5 7 1001.7 1001.7 0.0
01/09:30am 25.8 27.6 21.9 79 2.6 W 15 20 8 11 1001.9 1001.9 0.0
01/09:00am 25.1 27.6 22.4 85 1.8 W 13 17 7 9 1001.8 1001.8 22.6
01/08:30am 24.3 27.2 22.4 89 1.3 W 11 15 6 8 1002.0 1002.0 22.6
01/08:09am 23.5 27.1 22.1 92 0.9 W 6 9 3 5 1001.9 1001.9 22.6
01/08:00am 23.4 27.6 22.4 94 0.7 W 4 7 2 4 1001.9 1001.9 22.6
01/07:30am 22.7 25.7 21.9 95 0.5 WSW 9 13 5 7 1001.8 1001.8 22.6
01/07:00am 22.6 25.9 21.9 96 0.5 W 7 9 4 5 1001.6 1001.6 22.6
01/06:30am 22.1 26.5 21.4 96 0.5 CALM 0 7 0 4 1001.2 1001.2 22.6
01/06:00am 22.1 26.5 21.3 95 0.5 CALM 0 0 0 0 1000.9 1000.9 22.6
01/05:30am 22.1 26.5 21.3 95 0.5 CALM 0 0 0 0 1000.7 1000.7 22.6
01/05:00am 22.1 26.5 21.3 95 0.5 CALM 0 0 0 0 1000.5 1000.5 22.6
01/04:30am 22.2 25.5 21.4 95 0.5 WNW 6 7 3 4 1000.5 1000.5 22.6
01/04:00am 22.1 26.5 21.3 95 0.5 CALM 0 0 0 0 1000.5 1000.5 22.6
01/03:30am 22.0 25.2 21.2 95 0.5 WNW 6 9 3 5 1000.5 1000.5 22.6
01/03:00am 21.8 25.6 21.0 95 0.5 WSW 2 6 1 3 1000.5 1000.5 22.6
01/02:30am 22.1 25.4 21.4 96 0.5 SW 6 7 3 4 1000.7 1000.7 22.6
01/02:00am 21.9 25.1 21.2 96 0.5 W 6 9 3 5 1001.1 1001.1 22.6
01/01:30am 21.7 24.8 21.0 96 0.5 WNW 6 9 3 5 1001.3 1001.3 22.6
01/01:00am 22.1 25.3 21.3 95 0.5 WSW 6 7 3 4 1001.7 1001.7 22.6
01/12:54am 22.1 25.1 21.3 95 0.5 SW 7 9 4 5 1001.9 1001.9 22.6
01/12:30am 22.3 25.5 21.6 96 0.5 WSW 7 9 4 5 1002.3 1002.3 22.6
01/12:00am 22.5 25.8 21.8 96 0.5 SW 7 11 4 6 1002.7 1002.7 22.6
 
Date/Time
EDT
Temp
°C
App
Temp
°C
Dew
Point
°C
Rel
Hum
%
Delta-T
°C
Wind Press
QNH
hPa
Press
MSL
hPa
Rain since
9am
mm
Dir  Spd
km/h
Gust
km/h
Spd
kts
Gust
kts
31/11:30pm 22.5 27.1 21.8 96 0.5 CALM 0 0 0 0 1002.8 1002.8 22.6
31/11:22pm 22.3 26.8 21.6 96 0.5 CALM 0 0 0 0 1002.8 1002.8 22.6
31/11:00pm 22.3 26.8 21.5 95 0.5 CALM 0 0 0 0 1002.7 1002.7 22.6
31/10:30pm 22.6 25.9 21.9 96 0.5 N 7 9 4 5 1002.9 1002.9 22.6
31/10:00pm 22.5 25.4 21.7 95 0.5 NNW 9 11 5 6 1003.1 1003.1 22.6
31/09:55pm 22.5 25.4 21.8 96 0.5 NW 9 11 5 6 1003.0 1003.0 22.6
31/09:30pm 22.2 24.9 21.4 95 0.5 W 9 11 5 6 1002.9 1002.9 22.6
31/09:00pm 22.2 26.6 21.4 95 0.5 CALM 0 0 0 0 1002.5 1002.5 22.6
31/08:30pm 21.9 25.4 21.1 95 0.5 ENE 4 6 2 3 1002.3 1002.3 22.6
31/08:29pm 21.9 25.4 21.1 95 0.5 ENE 4 6 2 3 1002.3 1002.3 22.6
31/08:17pm 21.7 24.1 20.9 95 0.5 ESE 9 15 5 8 1002.1 1002.1 22.6
31/08:00pm 21.7 22.6 20.9 95 0.5 SSE 17 24 9 13 1002.3 1002.3 22.4
31/07:45pm 22.6 24.8 21.9 96 0.5 S 13 20 7 11 1002.6 1002.6 18.8
31/07:30pm 23.0 25.4 22.3 96 0.5 SE 13 20 7 11 1002.2 1002.2 14.4
31/07:06pm 23.0 27.1 22.2 95 0.5 ESE 4 9 2 5 1002.3 1002.3 10.2
31/07:00pm 23.0 26.1 22.2 95 0.5 ESE 9 15 5 8 1002.0 1002.0 9.8
31/06:41pm 23.0 25.7 22.2 95 0.5 E 11 15 6 8 1001.7 1001.7 8.6
31/06:38pm 23.0 26.1 22.2 95 0.5 E 9 13 5 7 1001.7 1001.7 8.0
31/06:36pm 23.0 26.1 22.2 95 0.5 E 9 13 5 7 1001.6 1001.6 7.8
31/06:30pm 23.1 25.9 22.3 95 0.5 ESE 11 15 6 8 1001.6 1001.6 7.8
31/06:29pm 23.1 25.9 22.3 95 0.5 ESE 11 15 6 8 1001.5 1001.5 7.8
31/06:13pm 23.2 25.6 22.2 94 0.7 SSE 13 19 7 10 1001.5 1001.5 6.6
31/06:03pm 23.5 25.1 22.1 92 0.9 SSE 17 20 9 11 1001.5 1001.5 3.0
31/06:00pm 23.7 25.3 22.1 91 1.1 SE 17 24 9 13 1001.3 1001.3 2.0
31/05:50pm 24.2 27.7 22.8 92 0.9 SSE 9 17 5 9 1000.9 1000.9 2.0
31/05:30pm 24.6 27.4 23.0 91 1.1 ESE 13 19 7 10 1000.4 1000.4 2.0
31/05:19pm 24.7 27.8 22.8 89 1.3 SE 11 17 6 9 1000.6 1000.6 1.6
31/05:08pm 25.0 28.4 22.7 87 1.5 SSE 9 15 5 8 1000.4 1000.4 1.2
31/05:00pm 25.3 28.5 22.4 84 2.0 E 9 13 5 7 1000.3 1000.3 0.8
31/04:30pm 25.2 27.2 22.3 84 1.9 S 15 33 8 18 1000.4 1000.4 0.2
31/04:09pm 26.6 27.5 22.0 76 3.1 ENE 20 26 11 14 999.7 999.7 0.2
31/04:00pm 27.6 28.8 22.1 72 3.7 ENE 19 24 10 13 999.9 999.9 0.2
31/03:30pm 28.7 31.2 23.1 71 3.8 NE 15 22 8 12 1000.5 1000.5 0.2
31/03:00pm 27.7 29.1 22.6 74 3.5 ENE 19 24 10 13 1001.0 1001.0 0.2
31/02:30pm 28.3 29.3 22.1 69 4.2 ENE 20 24 11 13 1001.1 1001.1 0.2
31/02:00pm 29.0 30.9 22.7 69 4.3 ENE 17 22 9 12 1001.5 1001.5 0.2
31/01:30pm 30.1 32.6 22.5 63 5.2 NNE 13 20 7 11 1001.8 1001.8 0.2
31/01:00pm 30.0 32.4 22.2 63 5.3 N 13 19 7 10 1002.3 1002.3 0.0
31/12:30pm 28.8 31.0 21.8 66 4.7 NNW 13 19 7 10 1002.8 1002.8 0.0
31/12:00pm 27.7 30.6 23.1 76 3.1 NE 13 17 7 9 1003.1 1003.1 0.0
31/11:30am 26.7 30.0 22.5 78 2.8 N 9 15 5 8 1003.7 1003.7 0.0
31/11:00am 25.5 28.0 22.4 83 2.1 NNE 13 19 7 10 1004.0 1004.0 0.0
31/10:30am 25.0 28.3 22.5 86 1.7 NNE 9 13 5 7 1004.5 1004.5 0.0
31/10:00am 24.2 28.7 22.3 89 1.3 NNE 2 7 1 4 1005.0 1005.0 0.0
31/09:30am 23.7 28.2 22.3 92 0.9 N 2 6 1 3 1005.1 1005.1 0.0
31/09:00am 23.2 27.8 22.4 95 0.5 N 2 7 1 4 1005.4 1005.4 8.6
31/08:30am 23.1 26.7 22.3 95 0.5 N 7 9 4 5 1005.4 1005.4 8.6
31/08:00am 22.9 27.7 22.1 95 0.5 CALM 0 0 0 0 1005.6 1005.6 8.6
31/07:30am 22.7 27.4 21.9 95 0.5 CALM 0 0 0 0 1005.4 1005.4 8.6
31/07:00am 22.7 27.3 21.7 94 0.7 CALM 0 0 0 0 1005.2 1005.2 8.6
31/06:30am 22.6 26.7 21.6 94 0.7 ESE 2 6 1 3 1005.2 1005.2 8.6
31/06:00am 22.7 25.8 21.5 93 0.8 SSW 7 9 4 5 1005.0 1005.0 8.6
31/05:30am 22.7 26.3 21.2 91 1.0 NW 4 6 2 3 1004.8 1004.8 8.6
31/05:00am 22.6 25.5 21.1 91 1.0 WNW 7 9 4 5 1004.7 1004.7 8.6
31/04:30am 22.7 25.4 21.3 92 0.9 N 9 13 5 7 1004.6 1004.6 8.6
31/04:00am 22.8 24.8 21.6 93 0.8 N 13 17 7 9 1004.8 1004.8 8.6
31/03:30am 23.0 25.6 22.0 94 0.7 N 11 15 6 8 1005.0 1005.0 8.4
31/03:00am 22.9 25.1 21.9 94 0.7 NE 13 19 7 10 1005.0 1005.0 8.4
31/02:30am 22.9 26.4 21.9 94 0.7 NNE 6 9 3 5 1006.2 1006.2 8.4
31/02:00am 23.0 26.0 22.0 94 0.7 N 9 13 5 7 1006.8 1006.8 8.2
31/01:30am 23.1 26.2 22.1 94 0.7 N 9 13 5 7 1007.4 1007.4 8.2
31/01:00am 22.8 26.2 22.0 95 0.5 NE 7 11 4 6 1007.9 1007.9 8.2
31/12:30am 23.0 26.6 22.0 94 0.7 NNW 6 7 3 4 1008.5 1008.5 7.4
31/12:00am 23.0 27.7 22.0 94 0.7 CALM 0 0 0 0 1008.9 1008.9 7.0
 
Date/Time
EDT
Temp
°C
App
Temp
°C
Dew
Point
°C
Rel
Hum
%
Delta-T
°C
Wind Press
QNH
hPa
Press
MSL
hPa
Rain since
9am
mm
Dir  Spd
km/h
Gust
km/h
Spd
kts
Gust
kts
30/11:30pm 23.0 26.9 21.8 93 0.8 N 4 6 2 3 1009.4 1009.4 6.4
30/11:13pm 23.2 26.8 22.0 93 0.8 NNW 6 7 3 4 1009.8 1009.8 6.2
30/11:00pm 23.2 27.2 22.0 93 0.8 N 4 9 2 5 1009.9 1009.9 6.0
30/10:59pm 23.2 27.2 22.0 93 0.8 N 4 9 2 5 1009.9 1009.9 6.0
30/10:30pm 23.3 27.7 22.1 93 0.8 N 2 6 1 3 1010.0 1010.0 5.0
30/10:00pm 23.3 26.6 21.9 92 0.9 N 7 9 4 5 1009.9 1009.9 4.2
30/09:30pm 23.4 26.3 21.8 91 1.1 N 9 13 5 7 1009.6 1009.6 3.8
30/09:00pm 23.5 26.3 21.6 89 1.3 NNE 9 13 5 7 1009.4 1009.4 3.4
30/08:30pm 23.6 26.1 21.7 89 1.3 NNE 11 17 6 9 1009.0 1009.0 3.2
30/08:00pm 23.7 26.2 21.8 89 1.3 NNE 11 17 6 9 1008.8 1008.8 2.8
30/07:30pm 23.6 25.8 21.9 90 1.1 N 13 17 7 9 1008.9 1008.9 2.8
30/07:00pm 23.7 25.5 21.8 89 1.3 NNE 15 20 8 11 1008.7 1008.7 2.8
30/06:30pm 24.0 25.7 21.7 87 1.5 NNE 15 24 8 13 1008.6 1008.6 1.8
30/06:00pm 25.1 25.9 21.4 80 2.5 NNE 19 28 10 15 1008.5 1008.5 0.0
30/05:30pm 25.7 25.4 21.1 76 3.0 NNE 24 33 13 18 1008.7 1008.7 0.0
30/05:00pm 25.9 25.7 21.3 76 3.1 NNE 24 37 13 20 1008.3 1008.3 0.0
30/04:30pm 26.0 25.8 21.2 75 3.2 NNE 24 32 13 17 1008.6 1008.6 0.0
30/04:00pm 26.5 25.6 21.5 74 3.3 NE 28 39 15 21 1008.7 1008.7 0.0
30/03:30pm 27.1 24.9 21.4 71 3.8 NE 35 43 19 23 1009.1 1009.1 0.0
30/03:00pm 28.0 27.1 21.5 67 4.3 NE 28 39 15 21 1009.5 1009.5 0.0
30/02:30pm 27.8 26.6 22.3 72 3.7 NE 32 43 17 23 1009.8 1009.8 0.0
30/02:00pm 27.2 25.4 21.2 69 4.0 NNE 32 43 17 23 1010.2 1010.2 0.0
30/01:30pm 27.7 26.3 22.0 71 3.8 NNE 32 41 17 22 1010.7 1010.7 0.0
30/01:00pm 28.2 27.4 21.7 68 4.4 NE 28 41 15 22 1011.0 1011.0 0.0
30/12:30pm 28.4 27.6 21.7 67 4.5 NE 28 43 15 23 1011.3 1011.3 0.0
30/12:00pm 27.8 26.4 21.1 67 4.4 NNE 30 39 16 21 1011.7 1011.7 0.0
30/11:30am 28.2 27.6 22.0 69 4.2 NE 28 37 15 20 1011.9 1011.9 0.0
30/11:00am 27.1 26.1 21.2 70 3.9 NE 28 35 15 19 1012.4 1012.4 0.0
30/10:30am 27.9 27.6 21.9 70 4.0 NE 26 35 14 19 1012.6 1012.6 0.0
30/10:00am 27.7 28.2 22.6 74 3.5 NE 24 35 13 19 1012.8 1012.8 0.0
30/09:30am 26.7 26.8 21.9 75 3.2 NE 24 33 13 18 1013.0 1013.0 0.0
30/09:00am 25.7 25.7 21.6 78 2.7 NE 24 30 13 16 1012.9 1012.9 0.0
30/08:30am 25.9 26.8 22.0 79 2.6 NE 20 30 11 16 1012.8 1012.8 0.0
30/08:00am 25.4 26.3 21.9 81 2.3 NE 20 28 11 15 1012.6 1012.6 0.0
30/07:30am 25.4 27.6 21.9 81 2.3 NE 13 22 7 12 1012.5 1012.5 0.0
30/07:00am 24.6 25.5 21.5 83 2.1 NE 19 28 10 15 1012.2 1012.2 0.0
30/06:30am 24.8 26.0 21.5 82 2.2 NE 17 24 9 13 1012.0 1012.0 0.0
30/06:00am 24.4 27.7 21.9 86 1.7 ENE 7 9 4 5 1011.8 1011.8 0.0
30/05:30am 24.7 27.2 21.8 84 1.9 NE 11 15 6 8 1011.5 1011.5 0.0
30/05:00am 24.3 27.1 21.6 85 1.8 NNE 9 15 5 8 1011.3 1011.3 0.0
30/04:30am 24.2 27.0 21.5 85 1.8 NNE 9 13 5 7 1011.2 1011.2 0.0
30/04:00am 24.4 27.0 21.9 86 1.7 NE 11 13 6 7 1011.6 1011.6 0.0
30/03:30am 24.5 27.4 21.8 85 1.8 NE 9 11 5 6 1011.7 1011.7 0.0
30/03:00am 24.6 28.1 21.9 85 1.8 NNE 6 7 3 4 1012.0 1012.0 0.0
30/02:30am 24.8 28.1 21.9 84 1.9 N 7 9 4 5 1012.2 1012.2 0.0
30/02:00am 24.5 27.3 21.6 84 1.9 NNE 9 15 5 8 1012.2 1012.2 0.0
30/01:30am 24.4 27.5 21.5 84 1.9 NNE 7 9 4 5 1012.6 1012.6 0.0
30/01:00am 24.8 27.6 21.5 82 2.2 NNE 9 13 5 7 1013.0 1013.0 0.0
30/12:30am 24.9 28.3 21.6 82 2.2 N 6 7 3 4 1013.3 1013.3 0.0
30/12:00am 25.0 28.2 21.7 82 2.2 N 7 9 4 5 1013.6 1013.6 0.0

Other formats

Comma delimited format used in spreadsheet applications
http://www.bom.gov.au/fwo/IDN60801/IDN60801.94596.axf

JavaScript Object Notation format (JSON) in row-major order
http://www.bom.gov.au/fwo/IDN60801/IDN60801.94596.json

Data quality

Most of these data are generated automatically and are frequently updated. Quality checks on data are not normally performed. It is possible for incorrect values to appear. Refer to information at About Latest Weather Observations and please check the disclaimer before using these data.